Gretna, Canada
Current Conditions -  °F | °C
As of 8:35 AM on Sunday 23 Nov 2014 (Local Time) from K2C8 Reporting Station
Scattered Clouds Scattered Clouds  
Wind Chill: 32°   Ceiling: Unl
Heat Index: 37°   Visibility: 10mi
Dew Point: 32°   Wind: 7mph
Humidity: 81%   Direction: 290°WNW
Pressure: 29.37"   Gusts: NA
Location:  49.01°N, 97.56°W
Report Text: K2C8 231435Z AUTO 29006KT 10SM SCT100 03/00 A2937 RMK AO2
Loading
Personal Weather Stations






























Interactive Weather Map New forecast layout! Learn more

10-Day Weather Forecast

Advertisements
Track Severe Weather on mobile